Time;durP1;ratioP1;P1;durP2;ratioP2;P2;SDS_P1;SDS_P2;PMS_P1;PMS_P2;Temp;Humidity;BMP_temperature;BMP_pressure;BME280_temperature;BME280_humidity;BME280_pressure;Samples;Min_cycle;Max_cycle;Signal;HPM_P1;HPM_P2
2021/06/27 00:01:45;;;;;;;15.97;8.43;;;14.40;99.90;;;;;;4480485;27;658477;-71
2021/06/27 00:04:32;;;;;;;12.47;9.80;;;14.30;99.90;;;;;;4504392;27;657207;-70
2021/06/27 00:07:21;;;;;;;14.00;9.83;;;14.30;99.90;;;;;;4475388;27;659427;-71
2021/06/27 00:10:10;;;;;;;11.73;9.20;;;14.30;99.90;;;;;;4478375;27;657950;-71
2021/06/27 00:12:58;;;;;;;17.93;8.60;;;14.30;99.90;;;;;;4477811;27;658014;-71
2021/06/27 00:15:47;;;;;;;15.15;8.88;;;14.30;99.90;;;;;;4493831;27;658427;-71
2021/06/27 00:18:34;;;;;;;14.87;10.07;;;14.20;99.90;;;;;;4465557;27;658114;-71
2021/06/27 00:21:22;;;;;;;14.83;9.17;;;14.30;99.90;;;;;;4483493;27;659895;-71
2021/06/27 00:24:11;;;;;;;16.63;9.00;;;14.30;99.90;;;;;;4472342;27;658864;-70
2021/06/27 00:26:58;;;;;;;16.23;9.33;;;14.20;99.90;;;;;;4471914;27;657520;-71
2021/06/27 00:29:46;;;;;;;16.33;9.40;;;14.30;99.90;;;;;;4498927;27;658461;-71
2021/06/27 00:32:33;;;;;;;10.47;8.23;;;14.20;99.90;;;;;;4480433;27;657693;-71
2021/06/27 00:35:21;;;;;;;12.00;8.40;;;14.20;99.90;;;;;;4495935;27;658771;-71
2021/06/27 00:38:09;;;;;;;13.77;6.87;;;14.10;99.90;;;;;;4470621;27;657633;-70
2021/06/27 00:40:58;;;;;;;10.70;7.43;;;14.10;99.90;;;;;;4498293;27;657799;-70
2021/06/27 00:43:45;;;;;;;16.07;8.57;;;14.00;99.90;;;;;;4472611;27;658829;-71
2021/06/27 00:46:33;;;;;;;13.73;8.73;;;14.00;99.90;;;;;;4476730;27;658362;-71
2021/06/27 00:49:21;;;;;;;13.40;8.70;;;14.00;99.90;;;;;;4492615;27;657988;-71
2021/06/27 00:52:08;;;;;;;17.93;9.07;;;14.00;99.90;;;;;;4473122;27;657976;-71
2021/06/27 00:54:56;;;;;;;13.83;9.13;;;14.10;99.90;;;;;;4488285;27;658577;-70
2021/06/27 00:57:46;;;;;;;19.07;9.03;;;14.00;99.90;;;;;;4473654;27;657793;-71
2021/06/27 01:00:35;;;;;;;17.37;9.80;;;14.00;99.90;;;;;;4471721;27;657649;-71
2021/06/27 01:03:23;;;;;;;13.87;9.67;;;13.90;99.90;;;;;;4486212;27;657624;-72
2021/06/27 01:06:10;;;;;;;14.67;9.90;;;13.90;99.90;;;;;;4483620;27;659328;-71
2021/06/27 01:08:58;;;;;;;13.03;9.80;;;13.90;99.90;;;;;;4471176;27;657440;-71
2021/06/27 01:11:46;;;;;;;17.43;9.93;;;14.00;99.90;;;;;;4493655;27;658175;-71
2021/06/27 01:14:34;;;;;;;19.60;10.73;;;14.00;99.90;;;;;;4464063;27;657708;-71
2021/06/27 01:17:22;;;;;;;15.10;10.07;;;14.00;99.90;;;;;;4487831;27;658015;-71
2021/06/27 01:20:11;;;;;;;16.87;10.40;;;13.90;99.90;;;;;;4467478;27;659727;-72
2021/06/27 01:23:01;;;;;;;15.93;9.43;;;13.90;99.90;;;;;;4463249;27;658627;-71
2021/06/27 01:25:49;;;;;;;14.60;10.10;;;13.90;99.90;;;;;;4465442;27;657742;-71
2021/06/27 01:28:37;;;;;;;14.43;10.87;;;13.80;99.90;;;;;;4488694;27;658684;-71
2021/06/27 01:31:25;;;;;;;13.80;9.03;;;13.80;99.90;;;;;;4470452;27;659019;-71
2021/06/27 01:34:13;;;;;;;13.70;9.57;;;13.80;99.90;;;;;;4470553;27;657660;-72
2021/06/27 01:37:00;;;;;;;16.10;8.63;;;13.70;99.90;;;;;;4490931;27;657991;-71
2021/06/27 01:39:49;;;;;;;13.53;9.57;;;13.70;99.90;;;;;;4468092;27;657360;-71
2021/06/27 01:42:37;;;;;;;15.77;9.07;;;13.60;99.90;;;;;;4490208;27;657331;-71
2021/06/27 01:45:25;;;;;;;17.90;7.77;;;13.70;99.90;;;;;;4464597;27;658230;-72
2021/06/27 01:48:13;;;;;;;21.07;8.80;;;13.60;99.90;;;;;;4470202;27;657642;-71
2021/06/27 01:51:02;;;;;;;13.63;8.60;;;13.60;99.90;;;;;;4493634;27;657476;-71
2021/06/27 01:53:49;;;;;;;14.30;8.50;;;13.60;99.90;;;;;;4466027;27;658076;-71
2021/06/27 01:56:38;;;;;;;13.43;9.13;;;13.60;99.90;;;;;;4489219;27;657855;-71
2021/06/27 01:59:26;;;;;;;14.20;8.70;;;13.60;99.90;;;;;;4468037;27;658334;-71
2021/06/27 02:02:13;;;;;;;10.23;8.27;;;13.50;99.90;;;;;;4464068;27;658072;-71
2021/06/27 02:05:01;;;;;;;17.20;11.20;;;13.50;99.90;;;;;;4498361;27;658548;-71
2021/06/27 02:07:48;;;;;;;15.77;10.10;;;13.50;99.90;;;;;;4465775;27;658665;-72
2021/06/27 02:10:36;;;;;;;14.77;8.47;;;13.50;99.90;;;;;;4491483;27;659171;-71
2021/06/27 02:13:25;;;;;;;12.60;8.17;;;13.50;99.90;;;;;;4470349;27;658254;-72
2021/06/27 02:16:13;;;;;;;21.07;8.00;;;13.40;99.90;;;;;;4464738;28;658033;-72
2021/06/27 02:19:00;;;;;;;16.57;8.10;;;13.50;99.90;;;;;;4480794;28;657983;-72
2021/06/27 02:21:48;;;;;;;14.60;8.50;;;13.50;99.90;;;;;;4461213;28;657749;-72
2021/06/27 02:24:35;;;;;;;10.53;7.20;;;13.50;99.90;;;;;;4484092;28;657555;-70
2021/06/27 02:27:23;;;;;;;16.67;9.17;;;13.50;99.90;;;;;;4461615;28;657705;-71
2021/06/27 02:30:13;;;;;;;15.53;8.70;;;13.40;99.90;;;;;;4483598;28;658385;-70
2021/06/27 02:33:01;;;;;;;15.70;8.50;;;13.40;99.90;;;;;;4454362;28;658566;-70
2021/06/27 02:35:49;;;;;;;18.87;9.00;;;13.40;99.90;;;;;;4462549;28;657851;-71
2021/06/27 02:38:36;;;;;;;11.60;8.57;;;13.50;99.90;;;;;;4482229;28;658036;-70
2021/06/27 02:41:24;;;;;;;15.10;9.83;;;13.50;99.90;;;;;;4462546;28;657873;-71
2021/06/27 02:44:11;;;;;;;16.93;9.97;;;13.60;99.90;;;;;;4475875;28;657453;-70
2021/06/27 02:47:00;;;;;;;20.63;10.73;;;13.70;99.90;;;;;;4464717;27;657919;-71
2021/06/27 02:49:48;;;;;;;14.02;9.68;;;13.80;99.90;;;;;;4466612;27;659190;-71
2021/06/27 02:52:36;;;;;;;14.80;9.13;;;13.80;99.90;;;;;;4478414;27;658754;-71
2021/06/27 02:55:24;;;;;;;15.57;9.57;;;13.80;99.90;;;;;;4460610;27;658075;-71
2021/06/27 02:58:11;;;;;;;19.90;10.27;;;13.70;99.90;;;;;;4477095;27;657707;-71
2021/06/27 03:00:59;;;;;;;18.20;10.65;;;13.80;99.90;;;;;;4465299;27;658739;-71
2021/06/27 03:03:50;;;;;;;22.33;10.50;;;13.80;99.90;;;;;;4475932;27;658675;-71
2021/06/27 03:06:38;;;;;;;14.33;8.70;;;13.90;99.90;;;;;;4441487;27;658426;-71
2021/06/27 03:09:25;;;;;;;11.60;8.37;;;13.90;99.90;;;;;;4480143;27;658083;-70
2021/06/27 03:12:14;;;;;;;14.80;7.57;;;13.90;99.90;;;;;;4462809;27;657751;-71
2021/06/27 03:15:01;;;;;;;14.73;8.60;;;13.80;99.90;;;;;;4494114;27;657381;-70
2021/06/27 03:17:49;;;;;;;16.10;8.47;;;13.80;99.90;;;;;;4483457;27;658137;-71
2021/06/27 03:20:38;;;;;;;16.57;9.97;;;13.80;99.90;;;;;;4506420;27;657905;-70
2021/06/27 03:23:26;;;;;;;29.87;11.77;;;13.90;99.90;;;;;;4479250;27;658505;-71
2021/06/27 03:26:14;;;;;;;24.03;12.40;;;13.90;99.90;;;;;;4476271;27;658451;-71
2021/06/27 03:29:01;;;;;;;22.07;11.57;;;14.10;99.90;;;;;;4505758;27;658602;-71
2021/06/27 03:31:49;;;;;;;19.53;11.80;;;14.20;99.90;;;;;;4477999;27;658477;-71
2021/06/27 03:34:37;;;;;;;18.93;10.90;;;14.30;99.90;;;;;;4505543;27;658243;-71
2021/06/27 03:37:26;;;;;;;17.83;9.87;;;14.30;99.90;;;;;;4471588;27;658903;-71
2021/06/27 03:40:15;;;;;;;14.43;7.93;;;14.40;99.90;;;;;;4478470;27;658289;-71
2021/06/27 03:43:03;;;;;;;15.93;9.07;;;14.40;99.90;;;;;;4489728;27;658482;-71
2021/06/27 03:45:50;;;;;;;16.60;10.13;;;14.40;99.90;;;;;;4504539;27;658069;-70
2021/06/27 03:48:38;;;;;;;13.87;9.57;;;14.40;99.90;;;;;;4481251;27;658856;-72
2021/06/27 03:51:25;;;;;;;17.13;8.93;;;14.40;99.90;;;;;;4505973;27;658817;-71
2021/06/27 03:54:14;;;;;;;13.60;9.67;;;14.50;99.90;;;;;;4467507;27;657517;-71
2021/06/27 03:57:02;;;;;;;14.40;9.52;;;14.60;99.90;;;;;;4505185;27;657785;-71
2021/06/27 03:59:50;;;;;;;18.23;11.07;;;14.60;99.90;;;;;;4475338;27;658363;-71
2021/06/27 04:02:37;;;;;;;15.37;11.20;;;14.70;99.90;;;;;;4504561;27;658602;-71
2021/06/27 04:05:25;;;;;;;18.17;11.10;;;14.90;99.90;;;;;;4471921;27;659589;-71
2021/06/27 04:08:13;;;;;;;19.07;10.43;;;15.00;99.90;;;;;;4500179;27;659148;-72
2021/06/27 04:11:02;;;;;;;18.27;9.70;;;15.10;99.90;;;;;;4501381;27;660504;-71
2021/06/27 04:13:49;;;;;;;18.93;10.60;;;15.10;99.90;;;;;;4482305;27;658036;-71
2021/06/27 04:16:36;;;;;;;17.85;11.02;;;15.30;99.90;;;;;;4493272;27;658751;-71
2021/06/27 04:19:24;;;;;;;15.33;10.97;;;15.40;99.90;;;;;;4477423;27;658715;-71
2021/06/27 04:22:11;;;;;;;17.90;11.73;;;15.50;99.90;;;;;;4500614;27;658843;-71
2021/06/27 04:25:01;;;;;;;21.60;11.83;;;15.50;99.90;;;;;;4476597;27;658572;-71
2021/06/27 04:27:50;;;;;;;18.60;10.97;;;15.60;99.90;;;;;;4465089;27;658990;-72
2021/06/27 04:30:38;;;;;;;18.30;11.60;;;15.70;99.90;;;;;;4486274;27;658643;-72
2021/06/27 04:33:25;;;;;;;17.73;11.27;;;15.80;99.90;;;;;;4501757;27;659603;-71
2021/06/27 04:36:13;;;;;;;20.37;10.13;;;15.90;99.90;;;;;;4479001;27;658663;-70
2021/06/27 04:39:00;;;;;;;19.27;11.80;;;16.00;99.90;;;;;;4501856;27;658383;-70
2021/06/27 04:41:48;;;;;;;17.97;10.57;;;16.20;99.90;;;;;;4480128;27;658842;-71
2021/06/27 04:44:37;;;;;;;23.87;12.10;;;16.30;99.90;;;;;;4500118;27;659032;-72
2021/06/27 04:47:24;;;;;;;18.80;11.67;;;16.50;99.90;;;;;;4475396;27;660039;-71
2021/06/27 04:50:13;;;;;;;17.77;11.67;;;16.60;99.90;;;;;;4503309;27;658362;-71
2021/06/27 04:53:01;;;;;;;17.87;11.57;;;16.70;99.90;;;;;;4468893;27;659989;-71
2021/06/27 04:55:48;;;;;;;19.95;11.60;;;16.80;99.90;;;;;;4475985;27;658487;-71
2021/06/27 04:58:36;;;;;;;21.87;11.90;;;16.80;99.90;;;;;;4501688;27;659565;-70
2021/06/27 05:01:25;;;;;;;20.47;11.97;;;16.90;99.90;;;;;;4477113;27;658943;-71
2021/06/27 05:04:13;;;;;;;18.13;12.07;;;17.00;99.90;;;;;;4491518;27;658397;-71
2021/06/27 05:07:00;;;;;;;20.50;12.77;;;17.20;99.90;;;;;;4500063;27;659313;-71
2021/06/27 05:09:49;;;;;;;20.23;12.50;;;17.30;99.90;;;;;;4478897;27;658484;-72
2021/06/27 05:12:36;;;;;;;17.40;12.30;;;17.40;99.90;;;;;;4491259;27;658442;-71
2021/06/27 05:15:24;;;;;;;21.17;11.90;;;17.50;99.90;;;;;;4467096;27;659356;-71
2021/06/27 05:18:13;;;;;;;17.03;11.73;;;17.50;99.90;;;;;;4500012;27;658854;-70
2021/06/27 05:21:01;;;;;;;18.07;11.13;;;17.60;99.90;;;;;;4475248;27;659129;-71
2021/06/27 05:23:48;;;;;;;18.43;11.37;;;17.50;99.90;;;;;;4480130;27;658828;-71
2021/06/27 05:26:36;;;;;;;19.87;12.43;;;17.40;99.90;;;;;;4495863;27;659851;-70
2021/06/27 05:29:23;;;;;;;20.20;14.23;;;17.40;99.90;;;;;;4476069;27;658771;-71
2021/06/27 05:32:11;;;;;;;25.90;14.37;;;17.40;99.90;;;;;;4498754;27;659747;-70
2021/06/27 05:35:00;;;;;;;24.20;15.00;;;17.50;99.90;;;;;;4471623;27;658816;-70
2021/06/27 05:37:48;;;;;;;24.27;15.07;;;17.50;99.90;;;;;;4478810;27;659044;-71
2021/06/27 05:40:36;;;;;;;26.03;13.97;;;17.60;99.90;;;;;;4501204;27;658759;-71
2021/06/27 05:43:24;;;;;;;20.97;14.13;;;17.70;99.90;;;;;;4474956;27;658714;-70
2021/06/27 05:46:12;;;;;;;23.00;15.50;;;17.60;99.90;;;;;;4499082;27;659077;-70
2021/06/27 05:48:59;;;;;;;24.00;15.90;;;17.70;99.90;;;;;;4480009;27;659266;-71
2021/06/27 05:51:48;;;;;;;26.47;16.73;;;17.80;99.90;;;;;;4489332;27;658736;-70
2021/06/27 05:54:36;;;;;;;25.23;17.00;;;17.80;99.90;;;;;;4479274;27;659465;-70
2021/06/27 05:57:24;;;;;;;26.20;16.17;;;17.90;99.90;;;;;;4470267;27;658253;-71
2021/06/27 06:00:12;;;;;;;21.77;15.83;;;18.10;99.90;;;;;;4499328;27;658581;-70
2021/06/27 06:03:00;;;;;;;22.60;15.97;;;18.10;99.90;;;;;;4479788;27;659885;-70
2021/06/27 06:05:48;;;;;;;25.97;16.67;;;18.20;99.90;;;;;;4495770;27;658974;-71
2021/06/27 06:08:37;;;;;;;21.00;15.43;;;18.30;99.90;;;;;;4502228;27;658792;-70
2021/06/27 06:11:26;;;;;;;24.83;16.40;;;18.50;99.90;;;;;;4476430;27;659646;-70
2021/06/27 06:14:14;;;;;;;27.50;16.67;;;18.50;99.90;;;;;;4474980;27;658431;-70
2021/06/27 06:17:02;;;;;;;24.50;15.90;;;18.60;99.90;;;;;;4503673;27;658981;-70
2021/06/27 06:19:51;;;;;;;26.77;17.37;;;18.70;99.90;;;;;;4475935;27;660286;-70
2021/06/27 06:22:39;;;;;;;28.03;17.87;;;18.80;99.90;;;;;;4482343;27;659269;-70
2021/06/27 06:25:28;;;;;;;26.03;18.20;;;19.10;99.90;;;;;;4506463;27;658990;-70
2021/06/27 06:28:16;;;;;;;30.67;18.90;;;19.10;99.90;;;;;;4480658;27;659946;-70
2021/06/27 06:31:03;;;;;;;26.73;17.97;;;19.10;99.90;;;;;;4475909;27;659054;-70
2021/06/27 06:33:51;;;;;;;30.43;19.07;;;19.20;99.90;;;;;;4503484;27;659692;-70
2021/06/27 06:36:39;;;;;;;29.20;20.63;;;19.30;99.90;;;;;;4472879;27;659086;-70
2021/06/27 06:39:26;;;;;;;30.37;20.93;;;19.50;99.90;;;;;;4500994;27;658872;-70
2021/06/27 06:42:16;;;;;;;31.50;20.90;;;19.40;99.90;;;;;;4479497;27;658658;-70
2021/06/27 06:45:04;;;;;;;39.97;19.83;;;19.50;99.90;;;;;;4481639;27;658897;-71
2021/06/27 06:47:51;;;;;;;42.57;20.20;;;19.60;99.90;;;;;;4501830;27;659891;-70
2021/06/27 06:50:39;;;;;;;48.77;17.77;;;19.80;99.90;;;;;;4480938;27;659178;-70
2021/06/27 06:53:27;;;;;;;31.40;15.53;;;19.80;99.90;;;;;;4497927;27;658925;-70
2021/06/27 06:56:19;;;;;;;34.27;16.53;;;19.80;99.90;;;;;;4477457;27;659275;-70
2021/06/27 06:59:08;;;;;;;31.77;19.03;;;19.80;99.90;;;;;;4476427;27;658953;-70
2021/06/27 07:01:56;;;;;;;31.73;17.77;;;19.80;99.90;;;;;;4476460;27;659762;-70
2021/06/27 07:04:43;;;;;;;32.43;17.17;;;19.90;99.90;;;;;;4479821;27;658784;-70
2021/06/27 07:07:31;;;;;;;29.07;16.70;;;20.10;99.90;;;;;;4499165;27;659881;-70
2021/06/27 07:10:19;;;;;;;32.17;16.77;;;20.10;99.90;;;;;;4477968;27;658727;-70
2021/06/27 07:13:06;;;;;;;31.53;16.17;;;20.20;99.90;;;;;;4499695;27;659737;-70
2021/06/27 07:15:55;;;;;;;26.20;16.23;;;20.40;99.90;;;;;;4481153;27;658653;-70
2021/06/27 07:18:43;;;;;;;34.07;15.90;;;20.50;99.90;;;;;;4481728;27;659441;-70
2021/06/27 07:21:31;;;;;;;23.03;15.73;;;20.60;99.90;;;;;;4501761;27;659061;-71
2021/06/27 07:24:18;;;;;;;23.10;15.03;;;20.80;99.90;;;;;;4481909;27;659142;-70
2021/06/27 07:27:07;;;;;;;23.60;14.57;;;21.00;99.90;;;;;;4504028;27;659545;-70
2021/06/27 07:29:55;;;;;;;25.17;15.03;;;21.00;99.90;;;;;;4477954;27;660506;-70
2021/06/27 07:32:44;;;;;;;25.17;13.53;;;20.90;99.90;;;;;;4495645;27;658509;-70
2021/06/27 07:35:33;;;;;;;23.30;13.40;;;21.10;99.90;;;;;;4499803;27;659171;-69
2021/06/27 07:38:20;;;;;;;19.47;11.80;;;21.50;99.90;;;;;;4478957;27;659688;-69
2021/06/27 07:41:08;;;;;;;17.73;12.63;;;21.60;99.90;;;;;;4479791;27;658766;-70
2021/06/27 07:43:56;;;;;;;19.70;13.17;;;21.70;99.90;;;;;;4502131;27;658978;-69
2021/06/27 07:46:43;;;;;;;24.57;13.60;;;22.00;99.90;;;;;;4480135;27;659231;-70
2021/06/27 07:49:32;;;;;;;18.77;12.20;;;22.10;99.90;;;;;;4502764;27;659453;-70
2021/06/27 07:52:20;;;;;;;21.07;12.33;;;22.50;99.90;;;;;;4478604;27;658980;-70
2021/06/27 07:55:09;;;;;;;17.63;11.80;;;22.60;99.90;;;;;;4484771;27;659540;-70
2021/06/27 07:57:57;;;;;;;19.00;11.93;;;22.20;99.90;;;;;;4503521;27;658623;-69
2021/06/27 08:00:45;;;;;;;19.53;11.33;;;21.90;99.90;;;;;;4479317;27;659545;-70
2021/06/27 08:03:33;;;;;;;19.37;11.53;;;21.80;99.90;;;;;;4496923;27;658267;-71
2021/06/27 08:06:22;;;;;;;17.67;11.33;;;21.70;99.90;;;;;;4501783;27;659455;-69
2021/06/27 08:09:10;;;;;;;13.87;10.03;;;21.70;99.90;;;;;;4480007;27;659285;-69
2021/06/27 08:11:58;;;;;;;16.70;10.60;;;21.80;99.90;;;;;;4493662;27;658578;-70
2021/06/27 08:14:46;;;;;;;21.00;10.27;;;22.00;99.90;;;;;;4501198;27;659889;-69
2021/06/27 08:17:33;;;;;;;13.50;10.37;;;22.00;99.90;;;;;;4479712;27;658919;-69
2021/06/27 08:20:22;;;;;;;17.47;10.93;;;22.00;99.90;;;;;;4498256;27;659138;-69
2021/06/27 08:23:11;;;;;;;15.73;10.40;;;22.10;99.90;;;;;;4479591;27;659374;-69
2021/06/27 08:25:59;;;;;;;16.33;10.03;;;22.20;99.90;;;;;;4477981;27;658800;-69
2021/06/27 08:28:47;;;;;;;14.17;11.53;;;22.50;99.90;;;;;;4500309;27;658750;-69
2021/06/27 08:31:35;;;;;;;18.53;10.80;;;22.70;99.90;;;;;;4475598;27;660690;-69
2021/06/27 08:34:23;;;;;;;16.33;11.23;;;22.90;99.90;;;;;;4489497;27;659064;-71
2021/06/27 08:37:11;;;;;;;18.20;12.07;;;22.90;99.90;;;;;;4502534;27;659909;-70
2021/06/27 08:40:00;;;;;;;18.63;12.47;;;23.00;99.90;;;;;;4479251;27;659039;-70
2021/06/27 08:42:48;;;;;;;18.23;12.00;;;23.10;99.90;;;;;;4483257;27;658608;-71
2021/06/27 08:45:36;;;;;;;20.03;11.83;;;23.10;99.90;;;;;;4501212;27;659259;-69
2021/06/27 08:48:24;;;;;;;19.60;10.43;;;23.10;99.90;;;;;;4479793;27;658563;-70
2021/06/27 08:51:12;;;;;;;17.77;11.50;;;23.00;99.90;;;;;;4497955;27;658934;-69
2021/06/27 08:53:59;;;;;;;18.40;11.63;;;22.70;99.90;;;;;;4459134;27;659614;-69
2021/06/27 08:56:49;;;;;;;17.53;10.57;;;22.70;99.90;;;;;;4479458;27;658580;-69
2021/06/27 08:59:36;;;;;;;14.93;10.40;;;22.80;99.90;;;;;;4457156;27;658827;-69
2021/06/27 09:02:24;;;;;;;15.33;10.63;;;23.30;99.90;;;;;;4459842;27;658656;-69
2021/06/27 09:05:12;;;;;;;18.87;10.70;;;23.70;99.90;;;;;;4482828;27;658528;-69
2021/06/27 09:08:14;;;;;;;15.82;10.75;;;24.30;99.90;;;;;;4461016;27;659306;-69
2021/06/27 09:11:14;;;;;;;13.23;10.20;;;24.50;99.90;;;;;;4454801;27;659096;-69
2021/06/27 09:14:03;;;;;;;15.60;11.45;;;24.20;99.90;;;;;;4456183;27;659079;-69
2021/06/27 09:16:52;;;;;;;16.00;12.03;;;23.80;99.90;;;;;;4460382;27;658824;-69
2021/06/27 09:19:56;;;;;;;14.90;10.53;;;23.70;99.90;;;;;;4459151;27;659672;-70
2021/06/27 09:22:49;;;;;;;14.30;10.30;;;23.80;99.90;;;;;;4434220;27;659257;-70
2021/06/27 09:25:37;;;;;;;15.23;10.35;;;24.10;99.90;;;;;;4455923;27;659080;-69
2021/06/27 09:28:25;;;;;;;17.67;10.52;;;24.00;99.90;;;;;;4456435;27;660222;-69
2021/06/27 09:31:29;;;;;;;18.25;10.35;;;24.30;99.90;;;;;;4461156;27;659270;-71
2021/06/27 09:34:17;;;;;;;17.63;10.95;;;24.60;99.90;;;;;;4460025;27;659005;-69
2021/06/27 09:37:05;;;;;;;14.93;10.32;;;24.40;99.90;;;;;;4460239;27;660009;-69
2021/06/27 09:39:57;;;;;;;16.55;9.93;;;24.70;99.90;;;;;;4460077;27;658433;-69
2021/06/27 09:42:45;;;;;;;19.65;10.93;;;24.60;99.90;;;;;;4457320;27;659159;-69
2021/06/27 09:45:36;;;;;;;15.68;11.00;;;24.70;99.90;;;;;;4471794;27;658852;-70
2021/06/27 09:48:25;;;;;;;18.02;9.85;;;24.60;99.90;;;;;;4459853;27;658822;-70
2021/06/27 09:51:15;;;;;;;14.57;9.10;;;24.70;99.90;;;;;;4477310;27;657905;-70
2021/06/27 09:54:03;;;;;;;16.77;10.40;;;24.70;99.90;;;;;;4478387;28;657921;-70
2021/06/27 09:56:51;;;;;;;15.52;10.32;;;24.50;99.90;;;;;;4484777;27;660375;-70
2021/06/27 09:59:41;;;;;;;13.32;9.38;;;24.30;99.90;;;;;;4465631;27;658360;-70
2021/06/27 10:02:29;;;;;;;17.92;9.90;;;24.50;99.90;;;;;;4466025;27;657919;-69
2021/06/27 10:05:27;;;;;;;15.63;9.90;;;24.50;99.90;;;;;;4486156;27;657992;-69
2021/06/27 10:08:28;;;;;;;14.35;10.40;;;25.00;99.90;;;;;;4440107;27;658428;-69
2021/06/27 10:11:17;;;;;;;16.67;10.35;;;25.30;99.90;;;;;;4460950;27;659036;-69
2021/06/27 10:14:10;;;;;;;17.35;10.52;;;25.80;99.90;;;;;;4465749;27;659438;-69
2021/06/27 10:16:58;;;;;;;18.58;11.15;;;26.20;99.90;;;;;;4442231;27;658396;-70
2021/06/27 10:19:46;;;;;;;17.02;10.98;;;26.20;99.90;;;;;;4487347;27;660009;-69
2021/06/27 10:22:35;;;;;;;15.80;10.02;;;26.10;99.90;;;;;;4464579;27;658546;-69
2021/06/27 10:25:24;;;;;;;13.43;9.25;;;26.60;99.90;;;;;;4465537;27;658706;-71
2021/06/27 10:28:11;;;;;;;12.82;9.43;;;27.10;99.90;;;;;;4485637;27;657817;-69
2021/06/27 10:30:59;;;;;;;13.95;10.05;;;27.20;99.90;;;;;;4462423;27;657632;-69
2021/06/27 10:33:47;;;;;;;14.20;7.88;;;27.70;99.90;;;;;;4483657;27;658770;-69
2021/06/27 10:36:36;;;;;;;18.23;9.38;;;28.10;99.90;;;;;;4462954;27;658945;-69
2021/06/27 10:39:25;;;;;;;12.52;8.82;;;28.20;99.90;;;;;;4466367;27;657913;-70
2021/06/27 10:42:13;;;;;;;19.65;9.00;;;28.40;99.90;;;;;;4476558;27;657890;-71
2021/06/27 10:45:01;;;;;;;16.40;8.65;;;28.40;99.90;;;;;;4489099;27;658846;-69
2021/06/27 10:47:49;;;;;;;11.70;8.30;;;27.90;99.90;;;;;;4466621;27;658104;-69
2021/06/27 10:50:55;;;;;;;12.10;7.97;;;28.00;99.90;;;;;;4489435;27;658065;-69
2021/06/27 10:54:11;;;;;;;11.82;7.28;;;28.70;99.90;;;;;;4460855;27;658245;-69
2021/06/27 10:57:02;;;;;;;11.20;7.35;;;28.40;99.90;;;;;;4464675;27;657846;-69
2021/06/27 10:59:59;;;;;;;10.38;7.18;;;28.40;99.90;;;;;;4466607;27;657314;-69
2021/06/27 11:02:47;;;;;;;9.90;7.70;;;27.70;99.90;;;;;;4461206;27;657800;-68
2021/06/27 11:05:44;;;;;;;14.10;9.20;;;27.10;99.90;;;;;;4466489;27;656923;-69
2021/06/27 11:08:39;;;;;;;11.60;8.45;;;26.50;99.90;;;;;;4461859;27;658271;-69
2021/06/27 11:11:27;;;;;;;13.33;8.87;;;25.90;99.90;;;;;;4461763;27;658256;-69
2021/06/27 11:14:17;;;;;;;14.00;9.10;;;26.20;99.90;;;;;;4460088;27;658920;-68
2021/06/27 11:17:05;;;;;;;11.95;9.75;;;26.50;99.90;;;;;;4465819;27;658312;-69
2021/06/27 11:19:53;;;;;;;12.43;8.05;;;26.70;99.90;;;;;;4464543;27;657342;-69
2021/06/27 11:22:47;;;;;;;13.50;9.13;;;27.10;99.90;;;;;;4482167;27;658135;-68
2021/06/27 11:25:35;;;;;;;9.27;8.02;;;27.30;99.90;;;;;;4437415;27;658658;-68
2021/06/27 11:28:35;;;;;;;15.13;9.50;;;27.40;99.90;;;;;;4467689;27;656431;-69
2021/06/27 11:31:28;;;;;;;11.15;8.45;;;27.50;99.90;;;;;;4451241;27;658311;-69
2021/06/27 11:34:25;;;;;;;13.68;8.48;;;27.80;99.90;;;;;;4460864;27;658772;-68
2021/06/27 11:37:41;;;;;;;11.50;7.46;;;28.20;99.90;;;;;;4454451;27;657953;-70
2021/06/27 11:40:43;;;;;;;9.55;6.88;;;28.50;99.90;;;;;;4438680;27;658449;-69
2021/06/27 11:43:52;;;;;;;9.60;6.95;;;28.00;99.90;;;;;;4439752;27;657419;-69
2021/06/27 11:46:42;;;;;;;9.50;6.40;;;27.80;99.90;;;;;;4439246;27;657511;-68
2021/06/27 11:49:34;;;;;;;8.93;6.82;;;27.70;99.90;;;;;;4463252;27;657895;-68
2021/06/27 11:52:22;;;;;;;9.68;6.70;;;27.80;99.90;;;;;;4462044;27;657053;-68
2021/06/27 11:55:11;;;;;;;9.88;7.00;;;28.30;99.90;;;;;;4462124;27;657185;-68
2021/06/27 11:57:58;;;;;;;10.95;6.43;;;28.50;99.90;;;;;;4465319;27;656576;-69
2021/06/27 12:00:49;;;;;;;10.27;6.68;;;28.70;99.90;;;;;;4483961;27;658774;-68
2021/06/27 12:03:47;;;;;;;11.45;5.78;;;29.10;99.90;;;;;;4460821;27;658424;-69
2021/06/27 12:06:38;;;;;;;7.25;5.75;;;29.00;99.20;;;;;;4464763;27;657576;-68
2021/06/27 12:09:36;;;;;;;8.55;5.07;;;29.20;97.00;;;;;;4461545;27;657709;-70
2021/06/27 12:12:37;;;;;;;8.05;4.80;;;29.20;95.00;;;;;;4442134;27;656990;-72
2021/06/27 12:15:28;;;;;;;7.22;5.53;;;28.90;95.10;;;;;;4466467;27;656514;-71
2021/06/27 12:18:18;;;;;;;7.25;5.15;;;28.40;94.60;;;;;;4458706;27;657462;-70
2021/06/27 12:21:08;;;;;;;7.82;5.75;;;28.00;95.60;;;;;;4463882;27;657871;-71
2021/06/27 12:23:57;;;;;;;8.63;5.63;;;27.60;97.20;;;;;;4466537;27;657438;-71
2021/06/27 12:26:45;;;;;;;6.68;5.60;;;27.80;96.80;;;;;;4466037;27;657361;-71
2021/06/27 12:29:33;;;;;;;9.77;5.82;;;27.70;97.80;;;;;;4477066;27;657192;-72
2021/06/27 12:32:21;;;;;;;8.55;5.57;;;28.20;99.90;;;;;;4487623;27;657660;-71
2021/06/27 12:35:09;;;;;;;7.68;5.32;;;28.80;95.30;;;;;;4465226;27;656727;-71
2021/06/27 12:37:59;;;;;;;7.65;5.43;;;29.00;92.40;;;;;;4483474;27;656686;-71
2021/06/27 12:40:48;;;;;;;7.95;5.15;;;29.40;91.90;;;;;;4460915;27;656322;-68
2021/06/27 12:43:41;;;;;;;8.35;6.22;;;29.40;93.80;;;;;;4461774;27;656785;-69
2021/06/27 12:46:30;;;;;;;11.75;5.95;;;29.20;94.00;;;;;;4438819;27;656652;-68
2021/06/27 12:49:19;;;;;;;7.60;5.97;;;29.60;94.20;;;;;;4465549;27;657738;-70
2021/06/27 12:52:08;;;;;;;8.27;5.70;;;30.10;93.70;;;;;;4497494;27;656574;-68
2021/06/27 12:54:57;;;;;;;7.95;4.55;;;30.40;92.70;;;;;;4469605;27;656953;-68
2021/06/27 12:57:56;;;;;;;6.22;4.30;;;30.30;85.10;;;;;;4483192;27;656243;-68
2021/06/27 13:00:43;;;;;;;6.60;4.78;;;29.80;81.80;;;;;;4459063;27;657061;-68
2021/06/27 13:03:31;;;;;;;9.63;4.15;;;29.70;80.30;;;;;;4502644;27;657135;-68
2021/06/27 13:06:19;;;;;;;6.87;4.50;;;29.60;83.50;;;;;;4472775;27;656769;-68
2021/06/27 13:09:16;;;;;;;6.43;4.78;;;29.80;84.40;;;;;;4499005;27;656835;-68
2021/06/27 13:12:19;;;;;;;5.55;4.57;;;29.80;83.70;;;;;;4456110;27;657328;-68
2021/06/27 13:15:14;;;;;;;4.85;4.35;;;29.80;83.90;;;;;;4467487;27;656769;-68
2021/06/27 13:18:03;;;;;;;5.30;4.40;;;29.80;79.30;;;;;;4476970;27;656378;-68
2021/06/27 13:20:51;;;;;;;4.25;3.90;;;29.10;80.50;;;;;;4473559;27;657412;-68
2021/06/27 13:23:39;;;;;;;7.88;4.20;;;27.90;83.70;;;;;;4483710;27;656328;-68
2021/06/27 13:26:27;;;;;;;7.47;4.57;;;27.60;90.20;;;;;;4499362;27;656368;-70
2021/06/27 13:29:24;;;;;;;5.80;5.18;;;27.60;90.50;;;;;;4481923;27;656289;-71
2021/06/27 13:32:24;;;;;;;7.70;5.05;;;27.30;94.10;;;;;;4468999;27;656782;-70
2021/06/27 13:35:32;;;;;;;8.00;5.15;;;27.20;96.40;;;;;;4474629;27;656798;-71
2021/06/27 13:38:22;;;;;;;6.45;5.20;;;27.00;98.20;;;;;;4452334;27;657551;-72
2021/06/27 13:41:09;;;;;;;6.05;5.18;;;26.60;99.90;;;;;;4463782;27;656527;-72
2021/06/27 13:43:58;;;;;;;7.47;5.68;;;26.20;99.90;;;;;;4494525;27;656489;-72
2021/06/27 13:46:48;;;;;;;10.55;5.50;;;26.00;99.90;;;;;;4474950;27;657197;-72
2021/06/27 13:49:37;;;;;;;13.70;5.28;;;25.80;99.90;;;;;;4468932;27;658261;-71
2021/06/27 13:52:25;;;;;;;8.88;5.10;;;25.70;99.90;;;;;;4469439;27;658909;-70
2021/06/27 13:55:14;;;;;;;15.05;5.20;;;25.80;99.90;;;;;;4484117;27;656924;-72
2021/06/27 13:58:02;;;;;;;7.93;5.43;;;25.80;99.90;;;;;;4469316;27;658307;-72
2021/06/27 14:00:49;;;;;;;6.28;5.03;;;25.80;99.90;;;;;;4476031;27;657648;-72
2021/06/27 14:03:39;;;;;;;6.07;5.47;;;25.70;99.90;;;;;;4499367;27;657106;-71
2021/06/27 14:06:27;;;;;;;7.03;5.68;;;25.90;99.90;;;;;;4474693;27;657125;-71
2021/06/27 14:09:15;;;;;;;5.72;5.07;;;26.10;99.90;;;;;;4479372;27;657830;-71
2021/06/27 14:12:03;;;;;;;9.25;5.30;;;26.40;99.90;;;;;;4490657;27;656672;-70
2021/06/27 14:14:51;;;;;;;5.88;5.03;;;26.50;99.90;;;;;;4498366;27;657679;-71